Pagina principale
METAR-TAF:

METAR-TAF

Aeroporti :

Aeroporto di Magadino

Locarno, Svizzera

latitudine: 46-09-55N, longitudine: 8-52-40E, altezza: 198 m

Osservazione

Il bollettino è stato emesso 16 minuti fa, alle 09:20 UTC
Vento 5 kt da ovest
Temperature 8°C
Umidità 76%
Pressione 1016 hPa
Visibilità: 7000 m
Nubi sparse ad un'altezza di 3500 ft
Nuvoloso ad un'altezza di 6000 ft

METAR: LSZL 090920Z 26005KT 7000 SCT035 BKN060 08/04 Q1016 RMK WHT

Ora: 10:36 (09:36 UTC)

Previsione

Il bollettino è stato emesso 4 ore e 11 minuti fa, alle 05:25 UTC
Previsione valida dal 09 alle 06 UTC al 09 alle 15 UTC
Vento 2 kt da direzioni variabili
Visibilità: 9000 m
Poco nuvoloso ad un'altezza di 3000 ft
Nubi sparse ad un'altezza di 4500 ft
Probabilità 40% :
Temporaneamente
dal 09 alle 06 UTC al 09 alle 15 UTC
rovesci di pioggia

TAF: LSZL 090525Z 0906/0915 VRB02KT 9000 FEW030 SCT045 PROB40 TEMPO 0906/0915 SHRA

Osservazioni e previsioni meteorologiche di più di 4000 aeroporti (messaggi METAR e TAF).

Le stazioni disponibili sono rappresentate dai dischi gialli e rossi sulla carta.

Puntare il mouse per vedere il nome della stazione.

Clicca sopra per visualizzare le osservazioni e previsioni meteorologiche.

Per cambiare la mappa : fare clic sui pulsanti verdi con una croce nera per ingrandire, il pulsante verde con un trattino per diminuire, o sulla freccia verde per le mappe adiacenti.


METAR-TAF: